sensor_id;sensor_type;location;lat;lon;timestamp;pressure;altitude;pressure_sealevel;temperature;humidity
39455;BME280;25155;41.890;23.446;2024-03-02T00:01:46;91331.31;;;5.44;76.58
39455;BME280;25155;41.890;23.446;2024-03-02T00:04:13;91323.25;;;5.41;76.52
39455;BME280;25155;41.890;23.446;2024-03-02T00:06:41;91326.13;;;5.39;76.49
39455;BME280;25155;41.890;23.446;2024-03-02T00:09:09;91331.81;;;5.41;76.52
39455;BME280;25155;41.890;23.446;2024-03-02T00:11:39;91334.94;;;5.43;76.64
39455;BME280;25155;41.890;23.446;2024-03-02T00:14:06;91329.75;;;5.43;76.42
39455;BME280;25155;41.890;23.446;2024-03-02T00:16:34;91326.63;;;5.46;76.26
39455;BME280;25155;41.890;23.446;2024-03-02T00:19:03;91322.25;;;5.42;76.24
39455;BME280;25155;41.890;23.446;2024-03-02T00:21:31;91322.75;;;5.49;76.32
39455;BME280;25155;41.890;23.446;2024-03-02T00:24:00;91323.53;;;5.49;75.91
39455;BME280;25155;41.890;23.446;2024-03-02T00:26:29;91322.50;;;5.50;75.91
39455;BME280;25155;41.890;23.446;2024-03-02T00:28:56;91328.19;;;5.52;75.87
39455;BME280;25155;41.890;23.446;2024-03-02T00:31:24;91336.25;;;5.51;75.75
39455;BME280;25155;41.890;23.446;2024-03-02T00:33:52;91319.91;;;5.50;75.69
39455;BME280;25155;41.890;23.446;2024-03-02T00:36:24;91311.59;;;5.48;76.30
39455;BME280;25155;41.890;23.446;2024-03-02T00:38:51;91322.69;;;5.18;76.70
39455;BME280;25155;41.890;23.446;2024-03-02T00:41:22;91312.13;;;5.35;77.27
39455;BME280;25155;41.890;23.446;2024-03-02T00:43:57;91320.91;;;5.34;76.98
39455;BME280;25155;41.890;23.446;2024-03-02T00:46:24;91315.22;;;5.37;77.02
39455;BME280;25155;41.890;23.446;2024-03-02T00:48:54;91311.06;;;5.36;76.55
39455;BME280;25155;41.890;23.446;2024-03-02T00:51:22;91311.56;;;5.38;76.82
39455;BME280;25155;41.890;23.446;2024-03-02T00:53:50;91311.56;;;5.38;76.40
39455;BME280;25155;41.890;23.446;2024-03-02T00:56:18;91318.34;;;5.39;76.84
39455;BME280;25155;41.890;23.446;2024-03-02T00:58:47;91308.47;;;5.41;77.08
39455;BME280;25155;41.890;23.446;2024-03-02T01:01:15;91301.75;;;5.45;76.73
39455;BME280;25155;41.890;23.446;2024-03-02T01:03:43;91298.63;;;5.48;76.88
39455;BME280;25155;41.890;23.446;2024-03-02T01:06:10;91299.91;;;5.51;77.22
39455;BME280;25155;41.890;23.446;2024-03-02T01:08:37;91302.50;;;5.51;77.28
39455;BME280;25155;41.890;23.446;2024-03-02T01:11:04;91291.34;;;5.55;76.70
39455;BME280;25155;41.890;23.446;2024-03-02T01:13:32;91291.63;;;5.59;76.63
39455;BME280;25155;41.890;23.446;2024-03-02T01:16:01;91288.75;;;5.61;77.13
39455;BME280;25155;41.890;23.446;2024-03-02T01:18:28;91284.63;;;5.65;76.76
39455;BME280;25155;41.890;23.446;2024-03-02T01:20:56;91282.78;;;5.65;76.63
39455;BME280;25155;41.890;23.446;2024-03-02T01:23:24;91285.38;;;5.65;76.54
39455;BME280;25155;41.890;23.446;2024-03-02T01:25:52;91272.66;;;5.69;76.80
39455;BME280;25155;41.890;23.446;2024-03-02T01:28:19;91284.09;;;5.73;76.26
39455;BME280;25155;41.890;23.446;2024-03-02T01:30:47;91290.56;;;5.75;76.27
39455;BME280;25155;41.890;23.446;2024-03-02T01:33:16;91286.94;;;5.76;75.91
39455;BME280;25155;41.890;23.446;2024-03-02T01:35:43;91273.19;;;5.81;76.16
39455;BME280;25155;41.890;23.446;2024-03-02T01:38:11;91272.91;;;5.78;75.98
39455;BME280;25155;41.890;23.446;2024-03-02T01:40:38;91275.25;;;5.74;75.88
39455;BME280;25155;41.890;23.446;2024-03-02T01:43:06;91277.09;;;5.73;75.79
39455;BME280;25155;41.890;23.446;2024-03-02T01:45:34;91279.94;;;5.67;76.18
39455;BME280;25155;41.890;23.446;2024-03-02T01:48:04;91283.56;;;5.61;77.10
39455;BME280;25155;41.890;23.446;2024-03-02T01:50:33;91277.06;;;5.53;77.38
39455;BME280;25155;41.890;23.446;2024-03-02T01:53:01;91276.31;;;5.52;77.21
39455;BME280;25155;41.890;23.446;2024-03-02T01:55:28;91267.22;;;5.55;77.31
39455;BME280;25155;41.890;23.446;2024-03-02T01:57:56;91270.09;;;5.53;77.34
39455;BME280;25155;41.890;23.446;2024-03-02T02:00:24;91273.97;;;5.51;78.17
39455;BME280;25155;41.890;23.446;2024-03-02T02:02:52;91273.72;;;5.47;78.34
39455;BME280;25155;41.890;23.446;2024-03-02T02:05:19;91280.47;;;5.48;78.02
39455;BME280;25155;41.890;23.446;2024-03-02T02:07:48;91278.91;;;5.47;77.93
39455;BME280;25155;41.890;23.446;2024-03-02T02:10:16;91266.44;;;5.49;78.09
39455;BME280;25155;41.890;23.446;2024-03-02T02:12:43;91270.34;;;5.52;77.88
39455;BME280;25155;41.890;23.446;2024-03-02T02:15:24;91271.38;;;5.46;78.11
39455;BME280;25155;41.890;23.446;2024-03-02T02:17:51;91282.56;;;5.51;78.23
39455;BME280;25155;41.890;23.446;2024-03-02T02:20:19;91273.69;;;5.57;78.07
39455;BME280;25155;41.890;23.446;2024-03-02T02:22:58;91276.56;;;5.51;77.57
39455;BME280;25155;41.890;23.446;2024-03-02T02:25:25;91282.56;;;5.51;77.74
39455;BME280;25155;41.890;23.446;2024-03-02T02:27:53;91283.56;;;5.50;78.10
39455;BME280;25155;41.890;23.446;2024-03-02T02:30:21;91283.06;;;5.58;77.51
39455;BME280;25155;41.890;23.446;2024-03-02T02:32:48;91276.84;;;5.65;77.85
39455;BME280;25155;41.890;23.446;2024-03-02T02:35:16;91275.25;;;5.69;77.48
39455;BME280;25155;41.890;23.446;2024-03-02T02:37:44;91272.91;;;5.72;77.52
39455;BME280;25155;41.890;23.446;2024-03-02T02:40:14;91275.78;;;5.76;77.22
39455;BME280;25155;41.890;23.446;2024-03-02T02:42:41;91268.00;;;5.81;76.62
39455;BME280;25155;41.890;23.446;2024-03-02T02:45:09;91269.03;;;5.85;76.84
39455;BME280;25155;41.890;23.446;2024-03-02T02:47:36;91264.34;;;5.87;76.63
39455;BME280;25155;41.890;23.446;2024-03-02T02:50:06;91261.22;;;5.85;76.48
39455;BME280;25155;41.890;23.446;2024-03-02T02:52:34;91276.81;;;5.90;76.33
39455;BME280;25155;41.890;23.446;2024-03-02T02:55:06;91270.06;;;5.89;75.75
39455;BME280;25155;41.890;23.446;2024-03-02T02:57:35;91273.69;;;5.57;76.12
39455;BME280;25155;41.890;23.446;2024-03-02T03:00:06;91264.38;;;5.72;76.04
39455;BME280;25155;41.890;23.446;2024-03-02T03:02:39;91264.38;;;5.72;75.69
39455;BME280;25155;41.890;23.446;2024-03-02T03:05:08;91266.19;;;5.71;75.96
39455;BME280;25155;41.890;23.446;2024-03-02T03:07:36;91264.09;;;5.73;76.03
39455;BME280;25155;41.890;23.446;2024-03-02T03:10:04;91260.19;;;5.76;75.91
39455;BME280;25155;41.890;23.446;2024-03-02T03:12:32;91259.66;;;5.79;75.63
39455;BME280;25155;41.890;23.446;2024-03-02T03:15:01;91261.25;;;5.80;75.35
39455;BME280;25155;41.890;23.446;2024-03-02T03:17:30;91257.63;;;5.81;75.37
39455;BME280;25155;41.890;23.446;2024-03-02T03:19:57;91262.81;;;5.81;74.97
39455;BME280;25155;41.890;23.446;2024-03-02T03:22:24;91271.88;;;5.79;75.18
39455;BME280;25155;41.890;23.446;2024-03-02T03:24:52;91271.63;;;5.80;75.01
39455;BME280;25155;41.890;23.446;2024-03-02T03:27:19;91268.78;;;5.82;75.23
39455;BME280;25155;41.890;23.446;2024-03-02T03:29:46;91262.00;;;5.81;74.77
39455;BME280;25155;41.890;23.446;2024-03-02T03:32:15;91262.00;;;5.81;74.93
39455;BME280;25155;41.890;23.446;2024-03-02T03:34:42;91262.81;;;5.81;74.69
39455;BME280;25155;41.890;23.446;2024-03-02T03:37:09;91266.16;;;5.82;74.63
39455;BME280;25155;41.890;23.446;2024-03-02T03:39:37;91260.47;;;5.80;74.88
39455;BME280;25155;41.890;23.446;2024-03-02T03:42:04;91263.84;;;5.80;74.85
39455;BME280;25155;41.890;23.446;2024-03-02T03:44:32;91260.47;;;5.80;74.67
39455;BME280;25155;41.890;23.446;2024-03-02T03:46:59;91256.56;;;5.82;74.31
39455;BME280;25155;41.890;23.446;2024-03-02T03:49:29;91262.81;;;5.81;74.43
39455;BME280;25155;41.890;23.446;2024-03-02T03:51:57;91261.50;;;5.84;74.52
39455;BME280;25155;41.890;23.446;2024-03-02T03:54:24;91260.22;;;5.81;74.32
39455;BME280;25155;41.890;23.446;2024-03-02T03:56:51;91260.47;;;5.80;74.46
39455;BME280;25155;41.890;23.446;2024-03-02T03:59:18;91258.91;;;5.79;74.13
39455;BME280;25155;41.890;23.446;2024-03-02T04:01:45;91255.78;;;5.76;74.06
39455;BME280;25155;41.890;23.446;2024-03-02T04:04:12;91255.00;;;5.76;74.45
39455;BME280;25155;41.890;23.446;2024-03-02T04:06:41;91254.22;;;5.75;73.89
39455;BME280;25155;41.890;23.446;2024-03-02T04:09:08;91257.59;;;5.76;74.24
39455;BME280;25155;41.890;23.446;2024-03-02T04:11:35;91256.81;;;5.75;74.23
39455;BME280;25155;41.890;23.446;2024-03-02T04:14:02;91258.16;;;5.73;74.28
39455;BME280;25155;41.890;23.446;2024-03-02T04:16:34;91256.06;;;5.70;73.71
39455;BME280;25155;41.890;23.446;2024-03-02T04:19:01;91250.88;;;5.70;74.09
39455;BME280;25155;41.890;23.446;2024-03-02T04:21:30;91246.72;;;5.64;74.63
39455;BME280;25155;41.890;23.446;2024-03-02T04:23:58;91252.94;;;5.63;74.22
39455;BME280;25155;41.890;23.446;2024-03-02T04:26:26;91255.81;;;5.66;74.24
39455;BME280;25155;41.890;23.446;2024-03-02T04:28:53;91250.34;;;5.68;74.59
39455;BME280;25155;41.890;23.446;2024-03-02T04:31:21;91255.25;;;5.69;74.20
39455;BME280;25155;41.890;23.446;2024-03-02T04:33:48;91255.81;;;5.71;74.06
39455;BME280;25155;41.890;23.446;2024-03-02T04:36:15;91253.72;;;5.73;74.29
39455;BME280;25155;41.890;23.446;2024-03-02T04:38:42;91260.19;;;5.76;73.99
39455;BME280;25155;41.890;23.446;2024-03-02T04:41:11;91252.41;;;5.76;74.09
39455;BME280;25155;41.890;23.446;2024-03-02T04:43:38;91252.16;;;5.78;74.32
39455;BME280;25155;41.890;23.446;2024-03-02T04:46:06;91246.94;;;5.78;74.15
39455;BME280;25155;41.890;23.446;2024-03-02T04:48:34;91248.78;;;5.77;73.64
39455;BME280;25155;41.890;23.446;2024-03-02T04:51:01;91254.50;;;5.74;73.64
39455;BME280;25155;41.890;23.446;2024-03-02T04:53:28;91258.16;;;5.73;73.56
39455;BME280;25155;41.890;23.446;2024-03-02T04:55:56;91256.06;;;5.70;73.53
39455;BME280;25155;41.890;23.446;2024-03-02T04:58:53;91263.06;;;5.64;73.48
39455;BME280;25155;41.890;23.446;2024-03-02T05:01:21;91261.78;;;5.67;73.87
39455;BME280;25155;41.890;23.446;2024-03-02T05:03:49;91250.84;;;5.60;73.88
39455;BME280;25155;41.890;23.446;2024-03-02T05:06:16;91254.75;;;5.67;73.51
39455;BME280;25155;41.890;23.446;2024-03-02T05:08:43;91261.25;;;5.70;73.96
39455;BME280;25155;41.890;23.446;2024-03-02T05:11:11;91260.19;;;5.71;73.90
39455;BME280;25155;41.890;23.446;2024-03-02T05:13:57;91259.19;;;5.67;73.75
39455;BME280;25155;41.890;23.446;2024-03-02T05:16:24;91263.84;;;5.70;73.88
39455;BME280;25155;41.890;23.446;2024-03-02T05:18:51;91265.38;;;5.71;73.75
39455;BME280;25155;41.890;23.446;2024-03-02T05:21:18;91270.31;;;5.72;73.55
39455;BME280;25155;41.890;23.446;2024-03-02T05:23:45;91265.38;;;5.71;73.46
39455;BME280;25155;41.890;23.446;2024-03-02T05:26:13;91268.25;;;5.74;73.42
39455;BME280;25155;41.890;23.446;2024-03-02T05:28:40;91267.47;;;5.74;73.65
39455;BME280;25155;41.890;23.446;2024-03-02T05:31:10;91274.22;;;5.75;73.17
39455;BME280;25155;41.890;23.446;2024-03-02T05:33:37;91277.34;;;5.77;73.44
39455;BME280;25155;41.890;23.446;2024-03-02T05:36:05;91276.81;;;5.80;73.48
39455;BME280;25155;41.890;23.446;2024-03-02T05:38:32;91279.41;;;5.80;73.23
39455;BME280;25155;41.890;23.446;2024-03-02T05:40:59;91289.53;;;5.82;73.26
39455;BME280;25155;41.890;23.446;2024-03-02T05:43:27;91280.69;;;5.83;73.34
39455;BME280;25155;41.890;23.446;2024-03-02T05:45:54;91287.19;;;5.85;73.58
39455;BME280;25155;41.890;23.446;2024-03-02T05:48:23;91292.66;;;5.84;73.71
39455;BME280;25155;41.890;23.446;2024-03-02T05:50:50;91283.56;;;5.86;73.20
39455;BME280;25155;41.890;23.446;2024-03-02T05:53:17;91287.97;;;5.86;73.55
39455;BME280;25155;41.890;23.446;2024-03-02T05:55:45;91291.88;;;5.88;73.64
39455;BME280;25155;41.890;23.446;2024-03-02T05:58:12;91290.84;;;5.89;73.48
39455;BME280;25155;41.890;23.446;2024-03-02T06:00:53;91291.59;;;5.90;73.62
39455;BME280;25155;41.890;23.446;2024-03-02T06:03:22;91290.28;;;5.92;73.08
39455;BME280;25155;41.890;23.446;2024-03-02T06:05:49;91285.09;;;5.92;73.28
39455;BME280;25155;41.890;23.446;2024-03-02T06:08:18;91286.16;;;5.91;73.23
39455;BME280;25155;41.890;23.446;2024-03-02T06:10:45;91276.03;;;5.90;73.54
39455;BME280;25155;41.890;23.446;2024-03-02T06:13:13;91287.69;;;5.87;73.64
39455;BME280;25155;41.890;23.446;2024-03-02T06:15:40;91281.47;;;5.88;73.62
39455;BME280;25155;41.890;23.446;2024-03-02T06:18:08;91281.50;;;5.83;73.92
39455;BME280;25155;41.890;23.446;2024-03-02T06:20:39;91283.81;;;5.85;73.86
39455;BME280;25155;41.890;23.446;2024-03-02T06:23:06;91282.25;;;5.53;74.28
39455;BME280;25155;41.890;23.446;2024-03-02T06:25:34;91286.16;;;5.76;74.49
39455;BME280;25155;41.890;23.446;2024-03-02T06:28:01;91283.03;;;5.84;74.01
39455;BME280;25155;41.890;23.446;2024-03-02T06:30:30;91288.50;;;5.88;74.13
39455;BME280;25155;41.890;23.446;2024-03-02T06:32:57;91279.91;;;5.92;73.93
39455;BME280;25155;41.890;23.446;2024-03-02T06:35:24;91283.56;;;5.97;74.14
39455;BME280;25155;41.890;23.446;2024-03-02T06:37:53;91280.44;;;6.00;73.70
39455;BME280;25155;41.890;23.446;2024-03-02T06:40:20;91286.66;;;6.04;73.66
39455;BME280;25155;41.890;23.446;2024-03-02T06:42:47;91292.34;;;6.06;73.78
39455;BME280;25155;41.890;23.446;2024-03-02T06:45:15;91286.63;;;6.09;73.84
39455;BME280;25155;41.890;23.446;2024-03-02T06:47:42;91290.78;;;6.10;74.26
39455;BME280;25155;41.890;23.446;2024-03-02T06:50:10;91291.03;;;6.13;74.23
39455;BME280;25155;41.890;23.446;2024-03-02T06:52:38;91286.91;;;6.18;73.78
39455;BME280;25155;41.890;23.446;2024-03-02T06:55:07;91292.34;;;6.16;73.72
39455;BME280;25155;41.890;23.446;2024-03-02T06:57:34;91290.78;;;6.20;74.46
39455;BME280;25155;41.890;23.446;2024-03-02T07:00:02;91287.16;;;6.21;74.51
39455;BME280;25155;41.890;23.446;2024-03-02T07:02:31;91293.88;;;6.22;74.49
39455;BME280;25155;41.890;23.446;2024-03-02T07:04:58;91292.06;;;6.28;74.51
39455;BME280;25155;41.890;23.446;2024-03-02T07:07:25;91293.06;;;6.32;74.49
39455;BME280;25155;41.890;23.446;2024-03-02T07:09:52;91301.66;;;6.38;74.09
39455;BME280;25155;41.890;23.446;2024-03-02T07:12:21;91288.66;;;6.38;74.14
39455;BME280;25155;41.890;23.446;2024-03-02T07:14:48;91295.63;;;6.42;74.54
39455;BME280;25155;41.890;23.446;2024-03-02T07:17:37;91296.19;;;6.39;74.59
39455;BME280;25155;41.890;23.446;2024-03-02T07:20:05;91295.41;;;6.44;74.69
39455;BME280;25155;41.890;23.446;2024-03-02T07:22:32;91297.72;;;6.40;74.91
39455;BME280;25155;41.890;23.446;2024-03-02T07:25:00;91304.00;;;6.49;75.04
39455;BME280;25155;41.890;23.446;2024-03-02T07:27:30;91301.63;;;6.53;75.06
39455;BME280;25155;41.890;23.446;2024-03-02T07:29:58;91306.53;;;6.60;74.71
39455;BME280;25155;41.890;23.446;2024-03-02T07:32:25;91309.38;;;6.63;75.12
39455;BME280;25155;41.890;23.446;2024-03-02T07:34:53;91303.66;;;6.66;75.22
39455;BME280;25155;41.890;23.446;2024-03-02T07:37:21;91301.03;;;6.72;75.20
39455;BME280;25155;41.890;23.446;2024-03-02T07:39:48;91305.69;;;6.80;75.32
39455;BME280;25155;41.890;23.446;2024-03-02T07:42:15;91313.19;;;6.86;75.03
39455;BME280;25155;41.890;23.446;2024-03-02T07:44:45;91297.06;;;6.90;74.82
39455;BME280;25155;41.890;23.446;2024-03-02T07:47:13;91311.59;;;6.96;74.61
39455;BME280;25155;41.890;23.446;2024-03-02T07:49:40;91302.22;;;7.00;74.97
39455;BME280;25155;41.890;23.446;2024-03-02T07:52:08;91303.47;;;7.08;74.71
39455;BME280;25155;41.890;23.446;2024-03-02T07:54:35;91307.09;;;7.12;74.68
39455;BME280;25155;41.890;23.446;2024-03-02T07:57:03;91309.16;;;7.15;75.19
39455;BME280;25155;41.890;23.446;2024-03-02T07:59:31;91314.31;;;7.25;74.91
39455;BME280;25155;41.890;23.446;2024-03-02T08:01:59;91317.41;;;7.32;75.33
39455;BME280;25155;41.890;23.446;2024-03-02T08:04:27;91318.63;;;7.40;75.41
39455;BME280;25155;41.890;23.446;2024-03-02T08:06:54;91317.56;;;7.46;75.38
39455;BME280;25155;41.890;23.446;2024-03-02T08:09:22;91318.31;;;7.52;74.67
39455;BME280;25155;41.890;23.446;2024-03-02T08:11:49;91324.81;;;7.54;73.97
39455;BME280;25155;41.890;23.446;2024-03-02T08:14:16;91325.88;;;7.53;73.68
39455;BME280;25155;41.890;23.446;2024-03-02T08:16:43;91321.66;;;7.57;73.73
39455;BME280;25155;41.890;23.446;2024-03-02T08:19:12;91320.84;;;7.62;73.74
39455;BME280;25155;41.890;23.446;2024-03-02T08:21:39;91326.25;;;7.71;73.26
39455;BME280;25155;41.890;23.446;2024-03-02T08:24:07;91334.81;;;7.76;73.30
39455;BME280;25155;41.890;23.446;2024-03-02T08:26:34;91328.53;;;7.77;72.62
39455;BME280;25155;41.890;23.446;2024-03-02T08:29:02;91330.88;;;7.79;72.63
39455;BME280;25155;41.890;23.446;2024-03-02T08:31:29;91326.97;;;7.82;72.96
39455;BME280;25155;41.890;23.446;2024-03-02T08:33:56;91328.50;;;7.83;72.19
39455;BME280;25155;41.890;23.446;2024-03-02T08:36:26;91329.09;;;7.74;71.16
39455;BME280;25155;41.890;23.446;2024-03-02T08:38:53;91335.38;;;7.73;71.40
39455;BME280;25155;41.890;23.446;2024-03-02T08:41:21;91335.88;;;7.75;71.76
39455;BME280;25155;41.890;23.446;2024-03-02T08:43:49;91334.56;;;7.73;71.52
39455;BME280;25155;41.890;23.446;2024-03-02T08:46:16;91326.25;;;7.71;71.25
39455;BME280;25155;41.890;23.446;2024-03-02T08:48:44;91332.75;;;7.73;70.96
39455;BME280;25155;41.890;23.446;2024-03-02T08:51:11;91335.91;;;7.70;70.65
39455;BME280;25155;41.890;23.446;2024-03-02T08:53:40;91331.78;;;7.64;70.33
39455;BME280;25155;41.890;23.446;2024-03-02T08:56:08;91333.34;;;7.65;70.66
39455;BME280;25155;41.890;23.446;2024-03-02T08:58:35;91332.78;;;7.68;70.42
39455;BME280;25155;41.890;23.446;2024-03-02T09:01:03;91330.66;;;7.75;70.60
39455;BME280;25155;41.890;23.446;2024-03-02T09:03:32;91338.38;;;7.86;71.05
39455;BME280;25155;41.890;23.446;2024-03-02T09:05:59;91334.44;;;7.93;71.05
39455;BME280;25155;41.890;23.446;2024-03-02T09:08:27;91340.94;;;7.91;70.17
39455;BME280;25155;41.890;23.446;2024-03-02T09:10:56;91336.84;;;7.79;69.52
39455;BME280;25155;41.890;23.446;2024-03-02T09:13:24;91329.84;;;7.80;70.68
39455;BME280;25155;41.890;23.446;2024-03-02T09:15:51;91333.94;;;7.86;70.43
39455;BME280;25155;41.890;23.446;2024-03-02T09:18:19;91334.19;;;7.90;70.58
39455;BME280;25155;41.890;23.446;2024-03-02T09:20:46;91331.78;;;7.98;70.18
39455;BME280;25155;41.890;23.446;2024-03-02T09:23:13;91329.63;;;8.06;70.62
39455;BME280;25155;41.890;23.446;2024-03-02T09:25:41;91327.50;;;8.13;70.37
39455;BME280;25155;41.890;23.446;2024-03-02T09:28:10;91328.72;;;8.21;70.11
39455;BME280;25155;41.890;23.446;2024-03-02T09:30:37;91328.13;;;8.29;69.79
39455;BME280;25155;41.890;23.446;2024-03-02T09:33:05;91327.06;;;8.35;69.72
39455;BME280;25155;41.890;23.446;2024-03-02T09:35:32;91330.44;;;8.36;69.43
39455;BME280;25155;41.890;23.446;2024-03-02T09:37:59;91330.72;;;8.34;69.45
39455;BME280;25155;41.890;23.446;2024-03-02T09:40:26;91326.84;;;8.26;68.43
39455;BME280;25155;41.890;23.446;2024-03-02T09:42:54;91324.63;;;8.14;68.30
39455;BME280;25155;41.890;23.446;2024-03-02T09:45:24;91323.88;;;8.09;68.43
39455;BME280;25155;41.890;23.446;2024-03-02T09:47:52;91326.16;;;8.15;69.11
39455;BME280;25155;41.890;23.446;2024-03-02T09:50:19;91326.16;;;8.15;68.81
39455;BME280;25155;41.890;23.446;2024-03-02T09:52:48;91324.31;;;8.16;68.99
39455;BME280;25155;41.890;23.446;2024-03-02T09:55:16;91321.97;;;8.20;68.45
39455;BME280;25155;41.890;23.446;2024-03-02T09:57:45;91327.19;;;8.20;68.36
39455;BME280;25155;41.890;23.446;2024-03-02T10:00:15;91321.44;;;8.18;67.67
39455;BME280;25155;41.890;23.446;2024-03-02T10:02:44;91317.06;;;8.13;67.93
39455;BME280;25155;41.890;23.446;2024-03-02T10:05:23;91305.59;;;8.14;68.67
39455;BME280;25155;41.890;23.446;2024-03-02T10:07:58;91300.91;;;8.11;68.65
39455;BME280;25155;41.890;23.446;2024-03-02T10:10:34;91307.38;;;8.19;69.07
39455;BME280;25155;41.890;23.446;2024-03-02T10:13:06;91300.53;;;8.23;68.74
39455;BME280;25155;41.890;23.446;2024-03-02T10:15:34;91303.19;;;8.18;70.13
39455;BME280;25155;41.890;23.446;2024-03-02T10:18:05;91291.78;;;8.13;70.08
39455;BME280;25155;41.890;23.446;2024-03-02T10:20:32;91295.44;;;8.12;71.49
39455;BME280;25155;41.890;23.446;2024-03-02T10:23:10;91294.50;;;8.03;72.50
39455;BME280;25155;41.890;23.446;2024-03-02T10:25:37;91293.66;;;8.08;73.36
39455;BME280;25155;41.890;23.446;2024-03-02T10:28:04;91286.91;;;8.07;72.30
39455;BME280;25155;41.890;23.446;2024-03-02T10:30:32;91286.56;;;8.13;73.45
39455;BME280;25155;41.890;23.446;2024-03-02T10:33:00;91290.59;;;8.30;73.21
39455;BME280;25155;41.890;23.446;2024-03-02T10:35:31;91284.19;;;8.46;72.90
39455;BME280;25155;41.890;23.446;2024-03-02T10:38:04;91289.72;;;8.64;72.49
39455;BME280;25155;41.890;23.446;2024-03-02T10:40:31;91288.50;;;8.80;71.99
39455;BME280;25155;41.890;23.446;2024-03-02T10:43:00;91284.72;;;8.92;71.50
39455;BME280;25155;41.890;23.446;2024-03-02T10:45:29;91278.38;;;8.98;70.48
39455;BME280;25155;41.890;23.446;2024-03-02T10:47:57;91283.81;;;9.01;70.65
39455;BME280;25155;41.890;23.446;2024-03-02T10:50:25;91271.75;;;9.05;70.22
39455;BME280;25155;41.890;23.446;2024-03-02T10:52:54;91275.22;;;9.01;68.50
39455;BME280;25155;41.890;23.446;2024-03-02T10:55:21;91273.44;;;8.96;66.76
39455;BME280;25155;41.890;23.446;2024-03-02T10:57:51;91268.47;;;8.76;65.67
39455;BME280;25155;41.890;23.446;2024-03-02T11:00:20;91276.19;;;8.86;69.11
39455;BME280;25155;41.890;23.446;2024-03-02T11:02:51;91270.75;;;9.01;70.42
39455;BME280;25155;41.890;23.446;2024-03-02T11:05:26;91272.19;;;9.13;66.68
39455;BME280;25155;41.890;23.446;2024-03-02T11:08:00;91269.84;;;9.11;64.35
39455;BME280;25155;41.890;23.446;2024-03-02T11:10:34;91265.09;;;8.75;63.83
39455;BME280;25155;41.890;23.446;2024-03-02T11:13:05;91260.53;;;8.62;64.83
39455;BME280;25155;41.890;23.446;2024-03-02T11:15:34;91249.19;;;8.52;64.47
39455;BME280;25155;41.890;23.446;2024-03-02T11:18:04;91245.25;;;8.55;65.78
39455;BME280;25155;41.890;23.446;2024-03-02T11:20:35;91241.47;;;8.42;65.11
39455;BME280;25155;41.890;23.446;2024-03-02T11:23:07;91239.56;;;8.72;64.13
39455;BME280;25155;41.890;23.446;2024-03-02T11:25:35;91249.22;;;8.90;63.76
39455;BME280;25155;41.890;23.446;2024-03-02T11:28:04;91254.75;;;9.08;64.52
39455;BME280;25155;41.890;23.446;2024-03-02T11:30:51;91254.19;;;9.11;64.53
39455;BME280;25155;41.890;23.446;2024-03-02T11:33:25;91256.66;;;9.21;64.45
39455;BME280;25155;41.890;23.446;2024-03-02T11:35:57;91262.38;;;9.23;63.12
39455;BME280;25155;41.890;23.446;2024-03-02T11:38:31;91265.78;;;9.24;60.60
39455;BME280;25155;41.890;23.446;2024-03-02T11:41:00;91256.66;;;9.21;61.93
39455;BME280;25155;41.890;23.446;2024-03-02T11:43:30;91252.09;;;9.32;61.97
39455;BME280;25155;41.890;23.446;2024-03-02T11:45:59;91243.81;;;9.44;61.86
39455;BME280;25155;41.890;23.446;2024-03-02T11:48:30;91245.13;;;9.60;60.48
39455;BME280;25155;41.890;23.446;2024-03-02T11:50:58;91240.59;;;9.66;59.26
39455;BME280;25155;41.890;23.446;2024-03-02T11:53:27;91229.78;;;9.73;59.58
39455;BME280;25155;41.890;23.446;2024-03-02T11:55:57;91241.41;;;9.80;58.02
39455;BME280;25155;41.890;23.446;2024-03-02T11:58:27;91246.06;;;9.84;57.60
39455;BME280;25155;41.890;23.446;2024-03-02T12:00:55;91240.84;;;9.84;55.70
39455;BME280;25155;41.890;23.446;2024-03-02T12:03:24;91241.06;;;9.87;55.54
39455;BME280;25155;41.890;23.446;2024-03-02T12:05:53;91241.63;;;9.84;55.11
39455;BME280;25155;41.890;23.446;2024-03-02T12:08:21;91227.41;;;9.90;54.51
39455;BME280;25155;41.890;23.446;2024-03-02T12:11:01;91235.47;;;9.94;54.84
39455;BME280;25155;41.890;23.446;2024-03-02T12:13:28;91239.94;;;9.93;55.92
39455;BME280;25155;41.890;23.446;2024-03-02T12:15:57;91240.16;;;9.78;55.94
39455;BME280;25155;41.890;23.446;2024-03-02T12:18:24;91244.31;;;9.79;56.36
39455;BME280;25155;41.890;23.446;2024-03-02T12:20:52;91250.59;;;9.78;55.81
39455;BME280;25155;41.890;23.446;2024-03-02T12:23:23;91247.00;;;9.74;56.11
39455;BME280;25155;41.890;23.446;2024-03-02T12:25:50;91243.94;;;9.86;56.26
39455;BME280;25155;41.890;23.446;2024-03-02T12:28:19;91249.47;;;9.84;56.33
39455;BME280;25155;41.890;23.446;2024-03-02T12:30:47;91247.19;;;9.96;56.61
39455;BME280;25155;41.890;23.446;2024-03-02T12:33:16;91247.88;;;10.02;55.16
39455;BME280;25155;41.890;23.446;2024-03-02T12:35:44;91245.84;;;9.99;57.40
39455;BME280;25155;41.890;23.446;2024-03-02T12:38:12;91243.84;;;10.10;56.83
39455;BME280;25155;41.890;23.446;2024-03-02T12:40:39;91256.41;;;10.08;56.74
39455;BME280;25155;41.890;23.446;2024-03-02T12:43:07;91256.97;;;10.05;57.09
39455;BME280;25155;41.890;23.446;2024-03-02T12:45:36;91248.31;;;9.90;56.91
39455;BME280;25155;41.890;23.446;2024-03-02T12:48:04;91240.66;;;9.80;56.51
39455;BME280;25155;41.890;23.446;2024-03-02T12:50:33;91243.38;;;9.89;57.37
39455;BME280;25155;41.890;23.446;2024-03-02T12:53:01;91241.00;;;9.92;57.12
39455;BME280;25155;41.890;23.446;2024-03-02T12:55:28;91236.41;;;9.84;56.31
39455;BME280;25155;41.890;23.446;2024-03-02T12:57:56;91239.84;;;9.66;56.56
39455;BME280;25155;41.890;23.446;2024-03-02T13:00:24;91238.56;;;9.63;57.29
39455;BME280;25155;41.890;23.446;2024-03-02T13:02:53;91247.84;;;9.55;58.13
39455;BME280;25155;41.890;23.446;2024-03-02T13:05:30;91237.50;;;9.64;57.45
39455;BME280;25155;41.890;23.446;2024-03-02T13:07:58;91234.59;;;9.66;58.11